Pringle, South Dakota
Current Conditions -  °F | °C
As of 4:09 PM on Monday 24 Nov 2014 (Local Time) from KCUT Reporting Station
Few Clouds Few Clouds  
Wind Chill: 18°   Ceiling: Unl
Heat Index: 25°   Visibility: 10mi
Dew Point: 17°   Wind: 6mph
Humidity: 72%   Direction: NA
Pressure: 29.98"   Gusts: NA
Location:  43.61°N, 103.59°W
Report Text: KCUT 242309Z AUTO VRB05KT 10SM FEW028 M04/M08 A2998 RMK AO2 T10391083
Loading
Personal Weather Stations






























Interactive Weather Map New forecast layout! Learn more

10-Day Weather Forecast

Advertisements
Track Severe Weather on mobile